createdAt,value
2019-02-28T00:00:21.614Z,10.65
2019-02-28T00:01:01.159Z,10.75
2019-02-28T00:01:37.830Z,10.38
2019-02-28T00:02:26.655Z,10.68
2019-02-28T00:03:01.364Z,10.50
2019-02-28T00:03:36.118Z,10.10
2019-02-28T00:04:11.151Z,9.55
2019-02-28T00:04:45.861Z,10.03
2019-02-28T00:05:19.532Z,10.05
2019-02-28T00:05:55.737Z,9.05
2019-02-28T00:06:30.779Z,11.70
2019-02-28T00:07:05.691Z,10.05
2019-02-28T00:07:49.700Z,10.72
2019-02-28T00:08:25.204Z,8.98
2019-02-28T00:08:59.317Z,10.75
2019-02-28T00:09:33.213Z,10.32
2019-02-28T00:10:07.128Z,9.95
2019-02-28T00:10:41.773Z,10.53
2019-02-28T00:11:19.611Z,10.40
2019-02-28T00:11:54.243Z,10.80
2019-02-28T00:12:28.435Z,11.22
2019-02-28T00:13:03.260Z,9.48
2019-02-28T00:13:36.962Z,10.03
2019-02-28T00:14:10.771Z,10.90
2019-02-28T00:14:45.640Z,11.38
2019-02-28T00:15:19.515Z,10.50
2019-02-28T00:15:53.304Z,10.40
2019-02-28T00:16:27.255Z,10.18
2019-02-28T00:17:01.972Z,10.80
2019-02-28T00:17:35.878Z,10.80
2019-02-28T00:18:09.690Z,10.03
2019-02-28T00:18:44.023Z,10.35
2019-02-28T00:19:18.028Z,11.60
2019-02-28T00:19:51.929Z,11.30
2019-02-28T00:20:25.666Z,11.95
2019-02-28T00:20:59.447Z,10.18
2019-02-28T00:21:33.246Z,10.30
2019-02-28T00:22:07.139Z,12.60
2019-02-28T00:22:41.029Z,13.15
2019-02-28T00:23:14.772Z,11.57
2019-02-28T00:23:48.646Z,11.48
2019-02-28T00:24:22.329Z,10.75
2019-02-28T00:24:56.174Z,12.55
2019-02-28T00:25:30.077Z,12.10
2019-02-28T00:26:03.939Z,11.45
2019-02-28T00:26:38.039Z,11.88
2019-02-28T00:27:12.161Z,11.43
2019-02-28T00:27:45.883Z,10.95
2019-02-28T00:28:23.038Z,12.55
2019-02-28T00:28:57.069Z,10.82
2019-02-28T00:29:33.332Z,12.25
2019-02-28T00:30:06.966Z,12.30
2019-02-28T00:30:41.550Z,12.30
2019-02-28T00:31:15.590Z,11.40
2019-02-28T00:31:50.689Z,11.95
2019-02-28T00:32:24.831Z,11.90
2019-02-28T00:32:59.957Z,12.18
2019-02-28T00:33:33.858Z,12.10
2019-02-28T00:34:07.608Z,11.20
2019-02-28T00:34:41.347Z,12.10
2019-02-28T00:35:15.046Z,10.70
2019-02-28T00:35:48.839Z,11.38
2019-02-28T00:36:22.759Z,11.35
2019-02-28T00:36:56.535Z,11.48
2019-02-28T00:37:30.241Z,11.60
2019-02-28T00:38:03.949Z,11.03
2019-02-28T00:38:39.810Z,11.50
2019-02-28T00:39:13.437Z,11.48
2019-02-28T00:39:47.134Z,10.50
2019-02-28T00:40:20.922Z,11.70
2019-02-28T00:40:54.642Z,11.05
2019-02-28T00:41:28.413Z,11.40
2019-02-28T00:42:02.086Z,11.78
2019-02-28T00:42:35.909Z,11.05
2019-02-28T00:43:09.760Z,12.03
2019-02-28T00:43:43.459Z,10.38
2019-02-28T00:44:17.220Z,10.30
2019-02-28T00:44:50.961Z,11.80
2019-02-28T00:45:24.741Z,11.63
2019-02-28T00:45:58.434Z,11.45
2019-02-28T00:46:32.464Z,10.78
2019-02-28T00:47:06.369Z,11.97
2019-02-28T00:47:40.221Z,10.80
2019-02-28T00:48:13.920Z,10.80
2019-02-28T00:48:47.703Z,10.90
2019-02-28T00:49:24.485Z,11.08
2019-02-28T00:49:56.962Z,11.65
2019-02-28T00:50:30.778Z,10.45
2019-02-28T00:51:04.624Z,11.05
2019-02-28T00:51:38.440Z,12.18
2019-02-28T00:52:14.482Z,11.83
2019-02-28T00:52:48.432Z,12.45
2019-02-28T00:53:22.031Z,11.35
2019-02-28T00:53:55.936Z,11.78
2019-02-28T00:54:29.768Z,10.90
2019-02-28T00:55:03.754Z,10.32
2019-02-28T00:55:37.545Z,9.83
2019-02-28T00:56:11.200Z,11.20
2019-02-28T00:56:44.929Z,10.95
2019-02-28T00:57:18.512Z,11.10
2019-02-28T00:57:52.161Z,11.75
2019-02-28T00:58:28.657Z,11.15
2019-02-28T00:59:01.287Z,10.40
2019-02-28T00:59:34.985Z,11.85
2019-02-28T01:00:09.507Z,11.88
2019-02-28T01:00:43.222Z,10.40
2019-02-28T01:01:16.886Z,11.28
2019-02-28T01:01:51.100Z,11.90
2019-02-28T01:02:25.247Z,10.53
2019-02-28T01:02:59.020Z,10.40
2019-02-28T01:03:32.783Z,12.43
2019-02-28T01:04:08.560Z,11.05
2019-02-28T01:04:42.609Z,9.90
2019-02-28T01:05:16.340Z,10.72
2019-02-28T01:05:49.995Z,12.05
2019-02-28T01:06:23.753Z,10.93
2019-02-28T01:06:57.567Z,10.70
2019-02-28T01:07:31.471Z,9.83
2019-02-28T01:08:05.202Z,11.05
2019-02-28T01:08:38.729Z,10.93
2019-02-28T01:09:12.423Z,10.82
2019-02-28T01:09:46.035Z,10.20
2019-02-28T01:10:19.737Z,10.58
2019-02-28T01:10:53.293Z,10.70
2019-02-28T01:11:26.734Z,10.23
2019-02-28T01:12:00.172Z,10.82
2019-02-28T01:12:33.630Z,10.45
2019-02-28T01:13:07.121Z,10.43
2019-02-28T01:13:40.637Z,10.32
2019-02-28T01:14:14.293Z,10.13
2019-02-28T01:14:47.777Z,10.82
2019-02-28T01:15:21.287Z,9.95
2019-02-28T01:15:54.800Z,9.93
2019-02-28T01:16:28.319Z,9.73
2019-02-28T01:17:02.554Z,9.25
2019-02-28T01:17:36.014Z,9.10
2019-02-28T01:18:09.566Z,8.88
2019-02-28T01:18:43.554Z,8.58
2019-02-28T01:19:17.075Z,8.88
2019-02-28T01:19:50.564Z,8.55
2019-02-28T01:20:24.323Z,8.13
2019-02-28T01:20:57.844Z,9.75
2019-02-28T01:21:31.393Z,9.20
2019-02-28T01:22:04.981Z,9.90
2019-02-28T01:22:38.513Z,9.38
2019-02-28T01:23:11.996Z,9.05
2019-02-28T01:23:45.599Z,9.88
2019-02-28T01:24:19.089Z,9.83
2019-02-28T01:24:52.556Z,9.48
2019-02-28T01:25:26.245Z,9.58
2019-02-28T01:25:59.740Z,8.25
2019-02-28T01:26:33.213Z,9.18
2019-02-28T01:27:06.727Z,9.20
2019-02-28T01:27:40.271Z,9.80
2019-02-28T01:28:13.820Z,7.30
2019-02-28T01:28:47.301Z,7.97
2019-02-28T01:29:20.780Z,9.60
2019-02-28T01:29:54.279Z,8.15
2019-02-28T01:30:27.791Z,9.10
2019-02-28T01:31:01.300Z,8.28
2019-02-28T01:31:34.799Z,8.18
2019-02-28T01:32:08.364Z,8.75
2019-02-28T01:32:41.935Z,8.65
2019-02-28T01:33:15.428Z,8.03
2019-02-28T01:33:48.961Z,8.30
2019-02-28T01:34:22.459Z,8.85
2019-02-28T01:34:55.954Z,8.10
2019-02-28T01:35:29.472Z,8.83
2019-02-28T01:36:02.964Z,9.03
2019-02-28T01:36:36.497Z,8.80
2019-02-28T01:37:10.054Z,8.43
2019-02-28T01:37:43.603Z,7.33
2019-02-28T01:38:17.200Z,8.15
2019-02-28T01:39:09.818Z,8.23
2019-02-28T01:39:43.252Z,8.78
2019-02-28T01:40:16.852Z,7.55
2019-02-28T01:40:50.357Z,7.80
2019-02-28T01:41:23.867Z,8.00
2019-02-28T01:41:57.332Z,7.58
2019-02-28T01:42:30.774Z,7.55
2019-02-28T01:43:04.452Z,7.10
2019-02-28T01:43:38.683Z,7.95
2019-02-28T01:44:12.161Z,7.65
2019-02-28T01:44:45.645Z,7.78
2019-02-28T01:45:19.436Z,7.70
2019-02-28T01:45:52.917Z,8.00
2019-02-28T01:46:26.445Z,7.65
2019-02-28T01:46:59.919Z,7.28
2019-02-28T01:47:33.399Z,7.55
2019-02-28T01:48:25.985Z,7.10
2019-02-28T01:48:59.805Z,7.20
2019-02-28T01:49:33.301Z,8.00
2019-02-28T01:50:06.904Z,7.72
2019-02-28T01:50:40.417Z,6.78
2019-02-28T01:51:15.915Z,7.62
2019-02-28T01:51:49.415Z,7.72
2019-02-28T01:52:22.900Z,7.25
2019-02-28T01:52:56.376Z,7.65
2019-02-28T01:53:29.902Z,7.62
2019-02-28T01:54:03.817Z,8.28
2019-02-28T01:54:37.312Z,8.23
2019-02-28T01:55:10.811Z,7.15
2019-02-28T01:55:44.229Z,7.28
2019-02-28T01:56:17.737Z,8.53
2019-02-28T01:56:51.165Z,8.38
2019-02-28T01:57:24.686Z,7.45
2019-02-28T01:57:58.215Z,8.00
2019-02-28T01:58:31.805Z,6.90
2019-02-28T01:59:05.552Z,8.18
2019-02-28T01:59:39.052Z,7.87
2019-02-28T02:00:13.181Z,8.00
2019-02-28T02:00:46.686Z,8.03
2019-02-28T02:01:20.411Z,6.95
2019-02-28T02:01:53.923Z,7.60
2019-02-28T02:02:27.895Z,7.75
2019-02-28T02:03:01.408Z,7.12
2019-02-28T02:03:34.915Z,7.65
2019-02-28T02:04:08.503Z,9.68
2019-02-28T02:04:43.205Z,6.80
2019-02-28T02:05:18.028Z,8.15
2019-02-28T02:05:52.512Z,9.08
2019-02-28T02:06:26.672Z,8.10
2019-02-28T02:07:00.791Z,8.65
2019-02-28T02:07:35.096Z,8.65
2019-02-28T02:08:10.929Z,8.23
2019-02-28T02:08:44.392Z,8.33
2019-02-28T02:09:17.937Z,8.45
2019-02-28T02:09:51.420Z,8.65
2019-02-28T02:10:24.920Z,8.48
2019-02-28T02:10:58.402Z,8.13
2019-02-28T02:11:32.060Z,7.83
2019-02-28T02:12:05.598Z,9.05
2019-02-28T02:12:39.093Z,8.78
2019-02-28T02:13:12.569Z,8.73
2019-02-28T02:13:46.065Z,9.05
2019-02-28T02:14:19.477Z,8.53
2019-02-28T02:14:52.951Z,8.80
2019-02-28T02:15:26.437Z,8.50
2019-02-28T02:16:00.000Z,9.35
2019-02-28T02:16:33.467Z,8.95
2019-02-28T02:17:07.074Z,9.05
2019-02-28T02:17:40.605Z,9.23
2019-02-28T02:18:14.087Z,8.25
2019-02-28T02:18:47.556Z,9.08
2019-02-28T02:19:21.018Z,7.53
2019-02-28T02:19:54.488Z,8.65
2019-02-28T02:20:27.964Z,8.40
2019-02-28T02:21:01.395Z,8.50
2019-02-28T02:21:35.638Z,9.30
2019-02-28T02:22:10.105Z,8.80
2019-02-28T02:22:44.514Z,8.43
2019-02-28T02:23:18.969Z,9.33
2019-02-28T02:23:53.071Z,8.60
2019-02-28T02:24:27.775Z,8.70
2019-02-28T02:25:03.132Z,8.98
2019-02-28T02:25:38.238Z,9.93
2019-02-28T02:26:11.939Z,9.78
2019-02-28T02:26:45.946Z,8.70
2019-02-28T02:27:20.374Z,8.68
2019-02-28T02:27:54.086Z,8.18
2019-02-28T02:28:27.884Z,8.85
2019-02-28T02:29:01.930Z,9.00
2019-02-28T02:29:37.050Z,8.53
2019-02-28T02:30:15.354Z,8.68
2019-02-28T02:30:54.568Z,9.03
2019-02-28T02:31:29.210Z,9.50
2019-02-28T02:32:02.918Z,9.45
2019-02-28T02:32:38.930Z,9.20
2019-02-28T02:33:14.455Z,9.33
2019-02-28T02:33:52.367Z,8.73
2019-02-28T02:34:24.397Z,9.05
2019-02-28T02:35:06.092Z,9.30
2019-02-28T02:35:33.517Z,9.00
2019-02-28T02:36:07.021Z,9.18
2019-02-28T02:36:40.574Z,8.75
2019-02-28T02:37:14.720Z,9.08
2019-02-28T02:37:48.199Z,8.33
2019-02-28T02:38:22.058Z,8.55
2019-02-28T02:38:55.600Z,9.13
2019-02-28T02:39:29.252Z,8.40
2019-02-28T02:40:02.729Z,9.10
2019-02-28T02:40:36.150Z,8.78
2019-02-28T02:41:09.658Z,9.43
2019-02-28T02:41:43.170Z,9.75
2019-02-28T02:42:16.584Z,8.88
2019-02-28T02:42:50.216Z,8.80
2019-02-28T02:43:23.894Z,9.00
2019-02-28T02:43:57.301Z,8.25
2019-02-28T02:44:32.043Z,8.58
2019-02-28T02:45:06.683Z,9.75
2019-02-28T02:45:43.370Z,9.23
2019-02-28T02:46:20.220Z,9.60
2019-02-28T02:46:55.601Z,9.85
2019-02-28T02:47:31.374Z,8.83
2019-02-28T02:48:05.249Z,9.90
2019-02-28T02:48:38.603Z,8.58
2019-02-28T02:49:18.369Z,9.53
2019-02-28T02:49:46.909Z,9.13
2019-02-28T02:50:20.399Z,8.88
2019-02-28T02:50:53.949Z,9.05
2019-02-28T02:51:27.433Z,9.10
2019-02-28T02:52:00.990Z,9.85
2019-02-28T02:52:34.496Z,9.30
2019-02-28T02:53:07.999Z,10.50
2019-02-28T02:53:42.171Z,9.45
2019-02-28T02:54:19.918Z,8.93
2019-02-28T02:54:52.893Z,9.10
2019-02-28T02:55:29.135Z,9.25
2019-02-28T02:56:03.879Z,9.30
2019-02-28T02:56:41.974Z,9.95
2019-02-28T02:57:13.987Z,10.05
2019-02-28T02:57:51.672Z,9.40
2019-02-28T02:58:27.779Z,10.15
2019-02-28T02:59:01.111Z,9.63
2019-02-28T02:59:38.993Z,9.80
2019-02-28T03:00:13.671Z,10.23
2019-02-28T03:00:50.150Z,9.48
2019-02-28T03:01:23.179Z,9.28
2019-02-28T03:01:57.230Z,10.10
2019-02-28T03:02:33.156Z,10.00
2019-02-28T03:03:07.635Z,9.75
2019-02-28T03:03:44.288Z,8.75
2019-02-28T03:04:21.454Z,9.23
2019-02-28T03:04:58.006Z,9.75
2019-02-28T03:05:27.038Z,9.40
2019-02-28T03:06:00.530Z,9.80
2019-02-28T03:06:34.009Z,9.35
2019-02-28T03:07:07.515Z,9.50
2019-02-28T03:07:41.000Z,9.40
2019-02-28T03:08:15.505Z,9.95
2019-02-28T03:08:48.982Z,9.78
2019-02-28T03:09:22.458Z,10.55
2019-02-28T03:09:55.927Z,9.75
2019-02-28T03:10:29.420Z,9.55
2019-02-28T03:11:02.898Z,10.55
2019-02-28T03:11:36.375Z,10.15
2019-02-28T03:12:09.860Z,10.28
2019-02-28T03:12:43.363Z,11.08
2019-02-28T03:13:16.765Z,9.95
2019-02-28T03:13:50.272Z,9.88
2019-02-28T03:14:23.670Z,9.90
2019-02-28T03:14:57.160Z,8.98
2019-02-28T03:15:30.640Z,9.85
2019-02-28T03:16:04.115Z,9.10
2019-02-28T03:16:37.589Z,8.98
2019-02-28T03:17:12.088Z,10.03
2019-02-28T03:17:47.196Z,9.28
2019-02-28T03:18:21.828Z,10.60
2019-02-28T03:18:58.225Z,10.18
2019-02-28T03:19:33.511Z,9.83
2019-02-28T03:20:07.445Z,9.48
2019-02-28T03:20:42.463Z,10.30
2019-02-28T03:21:16.535Z,10.28
2019-02-28T03:21:52.577Z,10.40
2019-02-28T03:22:29.862Z,9.28
2019-02-28T03:23:02.012Z,11.18
2019-02-28T03:23:40.174Z,11.60
2019-02-28T03:24:14.552Z,10.28
2019-02-28T03:24:50.725Z,9.90
2019-02-28T03:25:27.685Z,10.32
2019-02-28T03:25:56.555Z,10.20
2019-02-28T03:26:30.303Z,9.98
2019-02-28T03:27:03.865Z,9.35
2019-02-28T03:27:37.270Z,10.18
2019-02-28T03:28:10.678Z,10.65
2019-02-28T03:28:44.194Z,10.38
2019-02-28T03:29:17.598Z,10.23
2019-02-28T03:29:51.073Z,10.40
2019-02-28T03:30:31.846Z,10.75
2019-02-28T03:31:11.895Z,9.80
2019-02-28T03:31:35.003Z,10.78
2019-02-28T03:32:08.544Z,10.50
2019-02-28T03:32:42.821Z,10.30
2019-02-28T03:33:27.452Z,10.20
2019-02-28T03:33:51.869Z,9.70
2019-02-28T03:34:25.389Z,10.45
2019-02-28T03:34:59.488Z,10.85
2019-02-28T03:35:43.059Z,10.10
2019-02-28T03:36:08.532Z,10.55
2019-02-28T03:36:42.045Z,11.85
2019-02-28T03:37:15.680Z,12.35
2019-02-28T03:37:49.163Z,12.18
2019-02-28T03:38:22.566Z,11.08
2019-02-28T03:38:56.073Z,11.65
2019-02-28T03:39:29.570Z,11.43
2019-02-28T03:40:05.236Z,11.85
2019-02-28T03:40:40.253Z,11.30
2019-02-28T03:41:17.756Z,11.50
2019-02-28T03:41:49.019Z,12.00
2019-02-28T03:42:28.533Z,11.00
2019-02-28T03:43:05.508Z,10.68
2019-02-28T03:43:34.241Z,11.28
2019-02-28T03:44:07.769Z,10.32
2019-02-28T03:44:41.470Z,11.18
2019-02-28T03:45:15.146Z,11.97
2019-02-28T03:45:48.694Z,11.65
2019-02-28T03:46:22.180Z,12.13
2019-02-28T03:46:55.780Z,11.35
2019-02-28T03:47:29.202Z,11.20
2019-02-28T03:48:03.001Z,10.72
2019-02-28T03:48:36.492Z,11.20
2019-02-28T03:49:11.439Z,11.35
2019-02-28T03:49:49.824Z,11.22
2019-02-28T03:50:21.859Z,11.18
2019-02-28T03:50:56.676Z,10.90
2019-02-28T03:51:30.401Z,10.82
2019-02-28T03:52:06.618Z,11.75
2019-02-28T03:52:43.838Z,11.10
2019-02-28T03:53:19.250Z,10.65
2019-02-28T03:53:55.596Z,10.93
2019-02-28T03:54:28.867Z,11.33
2019-02-28T03:55:03.369Z,11.15
2019-02-28T03:55:40.089Z,11.22
2019-02-28T03:56:14.241Z,11.15
2019-02-28T03:56:51.262Z,10.25
2019-02-28T03:57:27.940Z,11.88
2019-02-28T03:57:56.174Z,11.28
2019-02-28T03:58:29.665Z,10.50
2019-02-28T03:59:03.362Z,13.38
2019-02-28T03:59:37.049Z,11.75
2019-02-28T04:00:12.279Z,10.85
2019-02-28T04:00:45.755Z,11.15
2019-02-28T04:01:19.261Z,12.18
2019-02-28T04:01:52.841Z,10.82
2019-02-28T04:02:26.323Z,11.90
2019-02-28T04:02:59.805Z,11.05
2019-02-28T04:03:34.627Z,13.32
2019-02-28T04:04:12.206Z,12.30
2019-02-28T04:04:48.457Z,11.73
2019-02-28T04:05:26.477Z,13.20
2019-02-28T04:05:54.576Z,10.80
2019-02-28T04:06:28.275Z,10.88
2019-02-28T04:07:01.825Z,12.10
2019-02-28T04:07:35.320Z,11.53
2019-02-28T04:08:08.804Z,12.43
2019-02-28T04:08:42.236Z,11.45
2019-02-28T04:09:15.787Z,11.48
2019-02-28T04:09:49.434Z,12.53
2019-02-28T04:10:22.924Z,12.33
2019-02-28T04:10:56.523Z,11.55
2019-02-28T04:11:31.169Z,12.70
2019-02-28T04:12:08.702Z,11.63
2019-02-28T04:12:45.122Z,12.93
2019-02-28T04:13:19.245Z,11.40
2019-02-28T04:13:52.559Z,12.47
2019-02-28T04:14:28.590Z,12.70
2019-02-28T04:15:01.080Z,12.20
2019-02-28T04:15:34.565Z,11.57
2019-02-28T04:16:09.731Z,11.78
2019-02-28T04:16:43.736Z,11.40
2019-02-28T04:17:17.270Z,13.45
2019-02-28T04:17:50.793Z,12.10
2019-02-28T04:18:26.045Z,13.65
2019-02-28T04:18:59.526Z,11.25
2019-02-28T04:19:33.054Z,12.50
2019-02-28T04:20:06.659Z,12.63
2019-02-28T04:20:40.149Z,11.63
2019-02-28T04:21:13.653Z,11.35
2019-02-28T04:21:47.887Z,13.05
2019-02-28T04:22:23.035Z,12.95
2019-02-28T04:23:00.083Z,13.13
2019-02-28T04:23:35.971Z,13.60
2019-02-28T04:24:12.713Z,13.18
2019-02-28T04:24:46.231Z,13.10
2019-02-28T04:25:23.040Z,12.15
2019-02-28T04:25:57.008Z,13.05
2019-02-28T04:26:29.859Z,12.75
2019-02-28T04:27:06.837Z,12.73
2019-02-28T04:27:40.488Z,13.18
2019-02-28T04:28:18.560Z,12.10
2019-02-28T04:28:53.283Z,12.23
2019-02-28T04:29:30.095Z,12.35
2019-02-28T04:30:06.594Z,12.98
2019-02-28T04:30:35.293Z,13.45
2019-02-28T04:31:08.982Z,14.00
2019-02-28T04:31:42.489Z,13.10
2019-02-28T04:32:15.922Z,12.53
2019-02-28T04:32:49.351Z,13.83
2019-02-28T04:33:22.849Z,12.60
2019-02-28T04:33:56.608Z,12.78
2019-02-28T04:34:30.128Z,13.43
2019-02-28T04:35:03.818Z,14.00
2019-02-28T04:35:37.345Z,13.53
2019-02-28T04:36:12.288Z,14.05
2019-02-28T04:36:45.833Z,12.60
2019-02-28T04:37:19.312Z,13.65
2019-02-28T04:37:52.801Z,14.45
2019-02-28T04:38:26.298Z,14.07
2019-02-28T04:38:59.796Z,13.78
2019-02-28T04:39:33.546Z,14.20
2019-02-28T04:40:07.260Z,12.85
2019-02-28T04:40:40.906Z,14.00
2019-02-28T04:41:14.384Z,14.20
2019-02-28T04:41:47.872Z,13.13
2019-02-28T04:42:21.338Z,13.43
2019-02-28T04:42:54.816Z,13.88
2019-02-28T04:43:28.321Z,15.05
2019-02-28T04:44:01.792Z,14.18
2019-02-28T04:44:35.302Z,14.53
2019-02-28T04:45:09.192Z,14.13
2019-02-28T04:45:42.665Z,14.58
2019-02-28T04:46:16.154Z,13.68
2019-02-28T04:46:49.639Z,14.13
2019-02-28T04:47:23.196Z,13.72
2019-02-28T04:47:56.669Z,14.30
2019-02-28T04:48:30.144Z,13.85
2019-02-28T04:49:03.625Z,14.10
2019-02-28T04:49:37.092Z,14.53
2019-02-28T04:50:10.794Z,15.38
2019-02-28T04:50:44.295Z,14.98
2019-02-28T04:51:17.767Z,15.00
2019-02-28T04:51:51.210Z,16.45
2019-02-28T04:52:24.916Z,14.98
2019-02-28T04:52:58.339Z,14.90
2019-02-28T04:53:31.753Z,15.83
2019-02-28T04:54:05.238Z,14.68
2019-02-28T04:54:38.738Z,13.95
2019-02-28T04:55:12.228Z,15.48
2019-02-28T04:55:45.716Z,13.98
2019-02-28T04:56:19.265Z,15.50
2019-02-28T04:56:52.758Z,15.03
2019-02-28T04:57:26.306Z,15.13
2019-02-28T04:57:59.815Z,15.98
2019-02-28T04:58:33.332Z,15.15
2019-02-28T04:59:06.831Z,15.75
2019-02-28T04:59:40.344Z,15.53
2019-02-28T05:00:14.041Z,13.98
2019-02-28T05:00:47.632Z,14.33
2019-02-28T05:01:21.137Z,14.50
2019-02-28T05:01:54.559Z,14.40
2019-02-28T05:02:28.125Z,15.78
2019-02-28T05:03:01.618Z,15.08
2019-02-28T05:03:35.126Z,14.90
2019-02-28T05:04:08.845Z,15.40
2019-02-28T05:04:42.432Z,15.35
2019-02-28T05:05:16.895Z,15.60
2019-02-28T05:05:50.396Z,14.68
2019-02-28T05:06:23.911Z,15.30
2019-02-28T05:06:57.318Z,15.00
2019-02-28T05:07:30.805Z,15.78
2019-02-28T05:08:05.565Z,14.98
2019-02-28T05:08:39.784Z,15.70
2019-02-28T05:09:14.461Z,15.10
2019-02-28T05:09:48.796Z,16.05
2019-02-28T05:10:22.994Z,14.80
2019-02-28T05:10:56.845Z,16.30
2019-02-28T05:11:30.726Z,17.00
2019-02-28T05:12:05.875Z,15.65
2019-02-28T05:12:40.826Z,16.05
2019-02-28T05:13:15.007Z,13.98
2019-02-28T05:13:49.406Z,15.85
2019-02-28T05:14:23.804Z,15.28
2019-02-28T05:14:59.910Z,16.05
2019-02-28T05:15:37.194Z,16.23
2019-02-28T05:16:09.310Z,15.68
2019-02-28T05:16:47.522Z,15.40
2019-02-28T05:17:19.398Z,16.00
2019-02-28T05:17:55.891Z,15.65
2019-02-28T05:18:29.287Z,16.27
2019-02-28T05:19:02.755Z,15.50
2019-02-28T05:19:36.592Z,16.27
2019-02-28T05:20:10.814Z,17.40
2019-02-28T05:20:46.118Z,18.48
2019-02-28T05:21:20.252Z,16.15
2019-02-28T05:21:54.367Z,16.90
2019-02-28T05:22:28.642Z,16.90
2019-02-28T05:23:02.888Z,16.93
2019-02-28T05:23:36.835Z,17.42
2019-02-28T05:24:10.479Z,16.93
2019-02-28T05:24:45.377Z,17.65
2019-02-28T05:25:18.921Z,17.15
2019-02-28T05:25:52.681Z,18.12
2019-02-28T05:26:27.012Z,16.73
2019-02-28T05:27:01.289Z,16.70
2019-02-28T05:27:35.619Z,16.80
2019-02-28T05:28:10.165Z,17.45
2019-02-28T05:28:43.649Z,17.67
2019-02-28T05:29:17.132Z,17.80
2019-02-28T05:29:50.603Z,16.07
2019-02-28T05:30:24.170Z,17.23
2019-02-28T05:30:57.653Z,17.25
2019-02-28T05:31:31.146Z,17.20
2019-02-28T05:32:04.703Z,18.02
2019-02-28T05:32:38.170Z,18.70
2019-02-28T05:33:11.713Z,17.65
2019-02-28T05:33:45.216Z,19.62
2019-02-28T05:34:18.785Z,18.10
2019-02-28T05:34:52.291Z,18.40
2019-02-28T05:35:26.786Z,19.87
2019-02-28T05:36:03.317Z,18.35
2019-02-28T05:36:37.877Z,18.27
2019-02-28T05:37:12.502Z,18.92
2019-02-28T05:37:48.208Z,19.48
2019-02-28T05:38:22.573Z,17.55
2019-02-28T05:38:56.510Z,19.75
2019-02-28T05:39:30.992Z,19.20
2019-02-28T05:40:06.810Z,18.52
2019-02-28T05:40:41.522Z,19.05
2019-02-28T05:41:15.501Z,19.48
2019-02-28T05:41:50.158Z,20.10
2019-02-28T05:42:24.124Z,18.67
2019-02-28T05:42:58.509Z,20.05
2019-02-28T05:43:32.954Z,18.67
2019-02-28T05:44:07.258Z,20.15
2019-02-28T05:44:41.197Z,19.57
2019-02-28T05:45:15.710Z,19.67
2019-02-28T05:45:49.783Z,19.60
2019-02-28T05:46:24.518Z,19.17
2019-02-28T05:46:58.804Z,19.62
2019-02-28T05:47:33.178Z,20.02
2019-02-28T05:48:06.700Z,20.77
2019-02-28T05:48:40.201Z,20.45
2019-02-28T05:49:13.684Z,19.85
2019-02-28T05:49:47.190Z,19.48
2019-02-28T05:50:20.947Z,21.05
2019-02-28T05:50:54.464Z,22.60
2019-02-28T05:51:28.135Z,22.60
2019-02-28T05:52:01.668Z,20.12
2019-02-28T05:52:35.149Z,21.60
2019-02-28T05:53:09.365Z,20.70
2019-02-28T05:53:43.710Z,21.80
2019-02-28T05:54:36.332Z,21.82
2019-02-28T05:55:10.200Z,22.58
2019-02-28T05:55:43.749Z,21.95
2019-02-28T05:56:17.365Z,22.73
2019-02-28T05:56:50.869Z,23.32
2019-02-28T05:57:24.337Z,21.57
2019-02-28T05:57:57.759Z,22.67
2019-02-28T05:58:31.190Z,23.57
2019-02-28T05:59:05.636Z,22.73
2019-02-28T05:59:39.325Z,23.40
2019-02-28T06:00:13.884Z,21.87
2019-02-28T06:00:47.393Z,23.15
2019-02-28T06:01:20.872Z,22.58
2019-02-28T06:01:54.412Z,25.62
2019-02-28T06:02:27.919Z,22.48
2019-02-28T06:03:02.645Z,23.30
2019-02-28T06:03:36.323Z,24.02
2019-02-28T06:04:09.790Z,22.75
2019-02-28T06:04:43.396Z,22.05
2019-02-28T06:05:16.875Z,23.18
2019-02-28T06:05:51.264Z,24.10
2019-02-28T06:06:24.760Z,24.10
2019-02-28T06:06:58.270Z,25.57
2019-02-28T06:07:31.673Z,24.72
2019-02-28T06:08:05.163Z,22.85
2019-02-28T06:08:39.218Z,24.32
2019-02-28T06:09:13.771Z,24.67
2019-02-28T06:09:48.714Z,25.12
2019-02-28T06:10:24.596Z,25.72
2019-02-28T06:11:00.636Z,23.60
2019-02-28T06:11:35.555Z,26.05
2019-02-28T06:12:09.543Z,26.23
2019-02-28T06:12:44.815Z,27.70
2019-02-28T06:13:18.969Z,24.55
2019-02-28T06:13:53.514Z,24.80
2019-02-28T06:14:27.820Z,25.20
2019-02-28T06:15:03.252Z,25.52
2019-02-28T06:15:37.135Z,26.30
2019-02-28T06:16:12.498Z,26.60
2019-02-28T06:16:46.884Z,26.17
2019-02-28T06:17:21.866Z,26.55
2019-02-28T06:17:55.750Z,27.22
2019-02-28T06:18:32.538Z,25.62
2019-02-28T06:19:08.353Z,27.37
2019-02-28T06:19:40.239Z,27.58
2019-02-28T06:20:17.727Z,27.05
2019-02-28T06:20:51.440Z,27.10
2019-02-28T06:21:26.550Z,27.10
2019-02-28T06:22:00.169Z,25.82
2019-02-28T06:22:36.267Z,25.75
2019-02-28T06:23:10.036Z,28.62
2019-02-28T06:23:43.754Z,26.62
2019-02-28T06:24:17.310Z,27.05
2019-02-28T06:24:50.736Z,27.25
2019-02-28T06:25:25.665Z,27.22
2019-02-28T06:26:00.822Z,28.38
2019-02-28T06:26:34.663Z,27.48
2019-02-28T06:27:08.200Z,28.50
2019-02-28T06:27:45.745Z,29.42
2019-02-28T06:28:17.139Z,30.15
2019-02-28T06:28:50.573Z,28.42
2019-02-28T06:29:24.165Z,28.20
2019-02-28T06:29:57.712Z,26.90
2019-02-28T06:30:31.217Z,27.85
2019-02-28T06:31:05.706Z,27.45
2019-02-28T06:31:39.198Z,29.77
2019-02-28T06:32:13.673Z,28.50
2019-02-28T06:32:47.292Z,27.58
2019-02-28T06:33:21.296Z,28.07
2019-02-28T06:33:54.941Z,27.55
2019-02-28T06:34:28.560Z,30.17
2019-02-28T06:35:02.229Z,28.27
2019-02-28T06:35:36.001Z,28.98
2019-02-28T06:36:09.524Z,30.23
2019-02-28T06:36:43.128Z,28.73
2019-02-28T06:37:23.421Z,27.73
2019-02-28T06:37:56.894Z,29.63
2019-02-28T06:38:30.496Z,29.30
2019-02-28T06:39:05.492Z,29.20
2019-02-28T06:39:39.025Z,30.32
2019-02-28T06:40:12.852Z,31.30
2019-02-28T06:40:46.387Z,31.27
2019-02-28T06:41:20.091Z,33.35
2019-02-28T06:41:54.000Z,32.33
2019-02-28T06:42:27.850Z,31.77
2019-02-28T06:43:01.436Z,31.70
2019-02-28T06:43:34.997Z,31.93
2019-02-28T06:44:09.476Z,32.03
2019-02-28T06:44:43.632Z,32.33
2019-02-28T06:45:17.172Z,33.20
2019-02-28T06:45:50.729Z,32.78
2019-02-28T06:46:24.367Z,31.70
2019-02-28T06:46:57.921Z,31.07
2019-02-28T06:47:31.547Z,31.30
2019-02-28T06:48:05.287Z,31.57
2019-02-28T06:48:38.908Z,32.88
2019-02-28T06:49:12.737Z,32.60
2019-02-28T06:49:46.401Z,34.15
2019-02-28T06:50:30.219Z,32.30
2019-02-28T06:51:03.894Z,32.13
2019-02-28T06:51:37.592Z,33.83
2019-02-28T06:52:11.415Z,33.90
2019-02-28T06:52:45.228Z,32.60
2019-02-28T06:53:18.887Z,33.80
2019-02-28T06:53:52.508Z,32.48
2019-02-28T06:54:26.811Z,33.55
2019-02-28T06:55:00.438Z,33.53
2019-02-28T06:55:34.135Z,32.60
2019-02-28T06:56:08.043Z,33.78
2019-02-28T06:56:46.377Z,33.50
2019-02-28T06:57:19.900Z,34.80
2019-02-28T06:57:53.530Z,34.53
2019-02-28T06:58:27.107Z,35.05
2019-02-28T06:59:00.843Z,34.20
2019-02-28T06:59:36.136Z,36.48
2019-02-28T07:00:13.094Z,34.00
2019-02-28T07:00:47.338Z,32.67
2019-02-28T07:01:22.644Z,33.65
2019-02-28T07:01:57.756Z,34.18
2019-02-28T07:02:32.302Z,34.88
2019-02-28T07:03:07.421Z,34.23
2019-02-28T07:03:42.538Z,34.60
2019-02-28T07:04:17.715Z,34.58
2019-02-28T07:04:51.588Z,35.95
2019-02-28T07:05:26.305Z,36.05
2019-02-28T07:06:01.924Z,34.00
2019-02-28T07:06:38.164Z,35.58
2019-02-28T07:07:13.959Z,35.08
2019-02-28T07:07:50.120Z,34.35
2019-02-28T07:08:28.800Z,34.13
2019-02-28T07:09:03.031Z,30.97
2019-02-28T07:09:38.203Z,34.80
2019-02-28T07:10:13.951Z,33.60
2019-02-28T07:10:51.901Z,35.95
2019-02-28T07:11:26.105Z,35.30
2019-02-28T07:12:01.674Z,34.92
2019-02-28T07:12:37.208Z,35.33
2019-02-28T07:13:12.749Z,33.63
2019-02-28T07:13:48.304Z,35.03
2019-02-28T07:14:23.222Z,33.18
2019-02-28T07:14:58.185Z,33.98
2019-02-28T07:15:32.243Z,34.43
2019-02-28T07:16:07.809Z,34.70
2019-02-28T07:16:42.834Z,34.58
2019-02-28T07:17:17.764Z,34.40
2019-02-28T07:17:51.503Z,34.70
2019-02-28T07:18:26.488Z,35.48
2019-02-28T07:19:02.671Z,33.90
2019-02-28T07:19:36.912Z,36.75
2019-02-28T07:20:12.038Z,33.50
2019-02-28T07:20:47.727Z,34.73
2019-02-28T07:21:25.354Z,35.00
2019-02-28T07:22:00.275Z,34.35
2019-02-28T07:22:34.418Z,33.33
2019-02-28T07:23:08.397Z,34.10
2019-02-28T07:23:42.944Z,34.53
2019-02-28T07:24:17.589Z,34.60
2019-02-28T07:24:51.404Z,35.60
2019-02-28T07:25:25.921Z,33.30